Lynnewood Gardens, Pennsylvania
Current Conditions -  °F | °C
As of 9:55 PM on Monday 22 Dec 2014 (Local Time) from KLOM Reporting Station
Overcast Overcast  
Wind Chill: 41°   Ceiling: 600
Heat Index: 41°   Visibility: 3mi
Dew Point: 41°   Wind: 3mph
Humidity: 100%   Direction: 60°ENE
Pressure: 30.14"   Gusts: NA
Location:  40.0737°N, 75.1707°W
Report Text: KLOM 230255Z AUTO 06003KT 3SM BKN006 BKN009 OVC036 05/05 A3014 RMK AO1 P0001
Loading
Personal Weather Stations






























Interactive Weather Map New forecast layout! Learn more

10-Day Weather Forecast

Advertisements
Track Severe Weather on mobile